createdAt,value
2019-03-16T00:01:06.634Z,7.98
2019-03-16T00:03:38.504Z,8.03
2019-03-16T00:06:29.464Z,7.97
2019-03-16T00:09:01.346Z,7.95
2019-03-16T00:11:33.552Z,7.89
2019-03-16T00:14:05.478Z,7.88
2019-03-16T00:16:37.234Z,7.96
2019-03-16T00:19:09.342Z,7.95
2019-03-16T00:21:41.101Z,7.99
2019-03-16T00:24:12.970Z,7.99
2019-03-16T00:26:44.866Z,8.02
2019-03-16T00:29:17.097Z,8.02
2019-03-16T00:31:48.921Z,8.01
2019-03-16T00:34:20.834Z,8.04
2019-03-16T00:36:52.678Z,7.94
2019-03-16T00:39:24.511Z,7.98
2019-03-16T00:41:56.706Z,7.92
2019-03-16T00:44:28.530Z,7.94
2019-03-16T00:47:00.431Z,7.98
2019-03-16T00:49:32.331Z,7.98
2019-03-16T00:52:04.192Z,8.00
2019-03-16T00:54:36.020Z,7.95
2019-03-16T00:57:07.846Z,8.01
2019-03-16T00:59:39.664Z,8.02
2019-03-16T01:02:26.155Z,7.96
2019-03-16T01:04:46.412Z,7.88
2019-03-16T01:07:18.308Z,7.97
2019-03-16T01:09:50.093Z,7.99
2019-03-16T01:12:21.903Z,7.91
2019-03-16T01:14:53.727Z,7.96
2019-03-16T01:17:25.502Z,7.93
2019-03-16T01:19:57.410Z,7.92
2019-03-16T01:22:29.239Z,7.92
2019-03-16T01:25:01.250Z,7.83
2019-03-16T01:27:33.163Z,7.73
2019-03-16T01:30:07.492Z,7.83
2019-03-16T01:32:40.826Z,7.77
2019-03-16T01:35:13.102Z,7.77
2019-03-16T01:37:45.025Z,7.74
2019-03-16T01:40:17.179Z,7.76
2019-03-16T01:42:49.096Z,7.74
2019-03-16T01:45:20.995Z,7.79
2019-03-16T01:47:52.813Z,7.74
2019-03-16T01:50:24.999Z,7.67
2019-03-16T01:52:56.758Z,7.69
2019-03-16T01:55:28.590Z,7.67
2019-03-16T01:58:00.331Z,7.62
2019-03-16T02:00:33.221Z,7.66
2019-03-16T02:03:05.428Z,7.53
2019-03-16T02:05:37.256Z,7.67
2019-03-16T02:08:09.095Z,7.67
2019-03-16T02:10:40.862Z,7.58
2019-03-16T02:13:12.744Z,7.67
2019-03-16T02:15:44.597Z,7.61
2019-03-16T02:18:17.513Z,7.67
2019-03-16T02:20:49.337Z,7.60
2019-03-16T02:23:21.097Z,7.58
2019-03-16T02:25:53.630Z,7.61
2019-03-16T02:28:25.382Z,7.63
2019-03-16T02:30:57.228Z,7.58
2019-03-16T02:33:29.063Z,7.58
2019-03-16T02:36:00.883Z,7.57
2019-03-16T02:38:32.646Z,7.59
2019-03-16T02:41:04.463Z,7.59
2019-03-16T02:43:36.207Z,7.53
2019-03-16T02:46:08.110Z,7.53
2019-03-16T02:48:39.872Z,7.56
2019-03-16T02:51:11.679Z,7.53
2019-03-16T02:53:43.433Z,7.49
2019-03-16T02:56:15.309Z,7.48
2019-03-16T02:58:47.410Z,7.57
2019-03-16T03:01:19.166Z,7.55
2019-03-16T03:03:50.919Z,7.56
2019-03-16T03:06:22.750Z,7.58
2019-03-16T03:08:54.499Z,7.59
2019-03-16T03:11:26.321Z,7.62
2019-03-16T03:13:58.097Z,7.58
2019-03-16T03:16:29.852Z,7.47
2019-03-16T03:19:02.067Z,7.41
2019-03-16T03:21:33.788Z,7.48
2019-03-16T03:24:05.610Z,7.52
2019-03-16T03:26:37.426Z,7.54
2019-03-16T03:29:09.336Z,7.57
2019-03-16T03:31:41.850Z,7.57
2019-03-16T03:34:13.547Z,7.53
2019-03-16T03:36:47.005Z,7.53
2019-03-16T03:39:18.987Z,7.49
2019-03-16T03:41:50.749Z,7.49
2019-03-16T03:44:22.554Z,7.50
2019-03-16T03:46:54.226Z,7.44
2019-03-16T03:49:25.904Z,7.46
2019-03-16T03:51:57.951Z,7.52
2019-03-16T03:54:29.636Z,7.46
2019-03-16T03:57:01.349Z,7.47
2019-03-16T03:59:33.656Z,7.43
2019-03-16T04:02:05.525Z,7.53
2019-03-16T04:04:37.658Z,7.53
2019-03-16T04:07:09.434Z,7.46
2019-03-16T04:09:42.165Z,7.54
2019-03-16T04:12:13.935Z,7.55
2019-03-16T04:14:45.625Z,7.52
2019-03-16T04:17:17.697Z,7.46
2019-03-16T04:19:49.891Z,7.48
2019-03-16T04:22:21.611Z,7.48
2019-03-16T04:24:53.299Z,7.42
2019-03-16T04:27:25.021Z,7.47
2019-03-16T04:29:56.710Z,7.47
2019-03-16T04:32:28.752Z,7.46
2019-03-16T04:35:00.538Z,7.44
2019-03-16T04:37:32.252Z,7.48
2019-03-16T04:40:04.042Z,7.41
2019-03-16T04:42:37.377Z,7.51
2019-03-16T04:45:09.223Z,7.38
2019-03-16T04:47:41.605Z,7.39
2019-03-16T04:50:13.474Z,7.42
2019-03-16T04:52:45.174Z,7.49
2019-03-16T04:55:16.875Z,7.41
2019-03-16T04:57:48.609Z,7.46
2019-03-16T05:00:20.337Z,7.52
2019-03-16T05:02:52.029Z,7.48
2019-03-16T05:05:23.749Z,7.46
2019-03-16T05:07:55.516Z,7.39
2019-03-16T05:10:27.562Z,7.37
2019-03-16T05:13:00.083Z,7.40
2019-03-16T05:15:32.037Z,7.45
2019-03-16T05:18:03.745Z,7.46
2019-03-16T05:20:35.421Z,7.46
2019-03-16T05:23:07.468Z,7.48
2019-03-16T05:25:39.147Z,7.42
2019-03-16T05:28:11.619Z,7.44
2019-03-16T05:30:43.310Z,7.46
2019-03-16T05:33:15.004Z,7.44
2019-03-16T05:35:46.775Z,7.44
2019-03-16T05:38:18.472Z,7.49
2019-03-16T05:40:50.248Z,7.47
2019-03-16T05:43:21.960Z,7.49
2019-03-16T05:45:53.749Z,7.46
2019-03-16T05:48:25.471Z,7.39
2019-03-16T05:50:57.615Z,7.42
2019-03-16T05:53:29.465Z,7.41
2019-03-16T05:56:01.151Z,7.44
2019-03-16T05:58:32.891Z,7.52
2019-03-16T06:01:05.634Z,7.56
2019-03-16T06:03:39.217Z,7.61
2019-03-16T06:06:11.246Z,7.55
2019-03-16T06:08:43.001Z,7.65
2019-03-16T06:11:14.676Z,7.60
2019-03-16T06:13:47.447Z,7.66
2019-03-16T06:16:19.296Z,7.66
2019-03-16T06:18:51.042Z,7.69
2019-03-16T06:21:22.809Z,7.57
2019-03-16T06:23:54.509Z,7.65
2019-03-16T06:26:26.539Z,7.76
2019-03-16T06:28:58.314Z,7.73
2019-03-16T06:31:30.672Z,7.70
2019-03-16T06:34:02.674Z,7.69
2019-03-16T06:36:34.432Z,7.73
2019-03-16T06:39:08.621Z,7.72
2019-03-16T06:41:43.333Z,7.83
2019-03-16T06:44:14.429Z,7.81
2019-03-16T06:46:46.313Z,7.71
2019-03-16T06:49:18.069Z,7.82
2019-03-16T06:51:50.887Z,7.77
2019-03-16T06:54:22.747Z,7.78
2019-03-16T06:56:54.659Z,7.80
2019-03-16T06:59:26.627Z,7.74
2019-03-16T07:01:58.424Z,7.69
2019-03-16T07:04:31.240Z,7.78
2019-03-16T07:07:03.487Z,7.76
2019-03-16T07:09:36.519Z,7.71
2019-03-16T07:12:09.268Z,7.70
2019-03-16T07:14:41.012Z,7.67
2019-03-16T07:17:12.938Z,7.66
2019-03-16T07:19:44.623Z,7.52
2019-03-16T07:22:16.481Z,7.52
2019-03-16T07:24:51.483Z,7.51
2019-03-16T07:27:26.485Z,7.49
2019-03-16T07:29:55.374Z,7.52
2019-03-16T07:32:27.123Z,7.43
2019-03-16T07:34:58.812Z,7.43
2019-03-16T07:37:30.829Z,7.47
2019-03-16T07:40:02.516Z,7.44
2019-03-16T07:42:34.266Z,7.40
2019-03-16T07:45:08.877Z,7.41
2019-03-16T07:47:41.708Z,7.41
2019-03-16T07:50:14.069Z,7.49
2019-03-16T07:52:46.829Z,7.39
2019-03-16T07:55:18.592Z,7.43
2019-03-16T07:57:50.267Z,7.49
2019-03-16T08:00:21.952Z,7.35
2019-03-16T08:02:53.952Z,7.43
2019-03-16T08:05:26.687Z,7.37
2019-03-16T08:07:58.396Z,7.52
2019-03-16T08:10:30.057Z,7.51
2019-03-16T08:13:02.151Z,7.47
2019-03-16T08:15:34.980Z,7.51
2019-03-16T08:18:07.996Z,7.52
2019-03-16T08:20:40.530Z,7.51
2019-03-16T08:23:12.309Z,7.52
2019-03-16T08:25:44.078Z,7.50
2019-03-16T08:28:15.769Z,7.58
2019-03-16T08:30:47.767Z,7.45
2019-03-16T08:33:19.719Z,7.46
2019-03-16T08:35:51.674Z,7.48
2019-03-16T08:38:23.658Z,7.40
2019-03-16T08:40:55.342Z,7.43
2019-03-16T08:43:27.272Z,7.43
2019-03-16T08:45:58.960Z,7.35
2019-03-16T08:48:30.960Z,7.40
2019-03-16T08:51:02.658Z,7.35
2019-03-16T08:53:34.663Z,7.45
2019-03-16T08:56:06.368Z,7.38
2019-03-16T08:58:38.346Z,7.34
2019-03-16T09:01:11.337Z,7.44
2019-03-16T09:03:44.090Z,7.44
2019-03-16T09:06:17.021Z,7.52
2019-03-16T09:08:48.761Z,7.54
2019-03-16T09:11:20.479Z,7.53
2019-03-16T09:13:52.435Z,7.63
2019-03-16T09:16:24.134Z,7.59
2019-03-16T09:18:55.809Z,7.59
2019-03-16T09:21:28.034Z,7.59
2019-03-16T09:23:59.716Z,7.56
2019-03-16T09:26:31.655Z,7.51
2019-03-16T09:29:14.439Z,7.45
2019-03-16T09:31:37.038Z,7.42
2019-03-16T09:34:09.407Z,7.45
2019-03-16T09:36:41.132Z,7.50
2019-03-16T09:39:12.781Z,7.51
2019-03-16T09:41:45.050Z,7.60
2019-03-16T09:44:16.738Z,7.67
2019-03-16T09:46:48.421Z,7.77
2019-03-16T09:49:20.091Z,7.86
2019-03-16T09:51:51.778Z,7.88
2019-03-16T09:54:23.471Z,7.90
2019-03-16T09:57:01.162Z,7.87
2019-03-16T09:59:28.875Z,7.83
2019-03-16T10:02:00.583Z,7.81
2019-03-16T10:04:32.331Z,7.81
2019-03-16T10:07:04.024Z,7.78
2019-03-16T10:09:35.691Z,7.68
2019-03-16T10:12:07.536Z,7.67
2019-03-16T10:14:39.226Z,7.66
2019-03-16T10:17:11.438Z,7.76
2019-03-16T10:19:43.145Z,7.76
2019-03-16T10:22:14.855Z,7.81
2019-03-16T10:24:46.773Z,7.95
2019-03-16T10:27:18.750Z,7.94
2019-03-16T10:29:50.811Z,8.03
2019-03-16T10:32:22.510Z,8.02
2019-03-16T10:34:54.258Z,8.07
2019-03-16T10:37:26.985Z,8.03
2019-03-16T10:39:59.129Z,8.07
2019-03-16T10:42:30.811Z,8.00
2019-03-16T10:45:03.776Z,7.97
2019-03-16T10:47:35.773Z,8.04
2019-03-16T10:50:09.808Z,7.98
2019-03-16T10:52:41.510Z,8.01
2019-03-16T10:55:13.347Z,7.99
2019-03-16T10:57:46.385Z,8.02
2019-03-16T11:00:18.502Z,8.11
2019-03-16T11:02:50.320Z,8.17
2019-03-16T11:05:22.023Z,8.21
2019-03-16T11:07:53.704Z,8.26
2019-03-16T11:10:25.392Z,8.30
2019-03-16T11:12:57.426Z,8.32
2019-03-16T11:15:29.399Z,8.42
2019-03-16T11:18:01.088Z,8.42
2019-03-16T11:20:33.027Z,8.45
2019-03-16T11:23:04.802Z,8.46
2019-03-16T11:25:36.486Z,8.39
2019-03-16T11:28:08.292Z,8.43
2019-03-16T11:30:39.974Z,8.52
2019-03-16T11:33:11.678Z,8.48
2019-03-16T11:35:43.376Z,8.39
2019-03-16T11:38:15.127Z,8.40
2019-03-16T11:40:46.930Z,8.41
2019-03-16T11:43:18.981Z,8.43
2019-03-16T11:45:51.279Z,8.51
2019-03-16T11:48:23.465Z,8.55
2019-03-16T11:50:55.751Z,8.66
2019-03-16T11:53:27.993Z,8.66
2019-03-16T11:55:59.781Z,8.74
2019-03-16T11:58:31.700Z,8.88
2019-03-16T12:01:03.497Z,8.92
2019-03-16T12:03:35.193Z,8.93
2019-03-16T12:06:07.198Z,8.98
2019-03-16T12:08:39.819Z,9.03
2019-03-16T12:11:11.913Z,9.03
2019-03-16T12:13:44.159Z,9.10
2019-03-16T12:16:16.079Z,9.16
2019-03-16T12:18:47.931Z,9.20
2019-03-16T12:21:20.119Z,9.12
2019-03-16T12:23:52.292Z,9.14
2019-03-16T12:26:24.082Z,9.19
2019-03-16T12:28:56.146Z,9.12
2019-03-16T12:31:28.563Z,9.07
2019-03-16T12:34:00.517Z,8.98
2019-03-16T12:36:32.305Z,9.11
2019-03-16T12:39:05.783Z,9.20
2019-03-16T12:41:37.980Z,9.28
2019-03-16T12:44:09.768Z,9.27
2019-03-16T12:46:41.655Z,9.35
2019-03-16T12:49:13.730Z,9.41
2019-03-16T12:51:45.795Z,9.40
2019-03-16T12:54:17.705Z,9.43
2019-03-16T12:56:49.410Z,9.48
2019-03-16T12:59:22.339Z,9.56
2019-03-16T13:01:54.386Z,9.63
2019-03-16T13:04:26.083Z,9.66
2019-03-16T13:06:58.162Z,9.68
2019-03-16T13:09:30.040Z,9.92
2019-03-16T13:12:02.244Z,10.01
2019-03-16T13:14:34.271Z,9.90
2019-03-16T13:17:06.189Z,9.94
2019-03-16T13:19:38.014Z,10.11
2019-03-16T13:22:09.723Z,10.06
2019-03-16T13:24:41.594Z,10.03
2019-03-16T13:27:13.484Z,9.96
2019-03-16T13:29:45.552Z,9.93
2019-03-16T13:32:17.325Z,9.93
2019-03-16T13:34:49.153Z,9.92
2019-03-16T13:37:20.836Z,9.92
2019-03-16T13:39:52.544Z,9.94
2019-03-16T13:42:24.457Z,10.00
2019-03-16T13:44:56.228Z,9.99
2019-03-16T13:47:28.405Z,10.17
2019-03-16T13:50:00.407Z,10.34
2019-03-16T13:52:32.499Z,10.40
2019-03-16T13:55:04.443Z,10.48
2019-03-16T13:57:36.428Z,10.74
2019-03-16T14:00:12.130Z,11.02
2019-03-16T14:02:44.171Z,10.95
2019-03-16T14:05:16.312Z,10.78
2019-03-16T14:07:49.203Z,10.65
2019-03-16T14:10:21.095Z,10.83
2019-03-16T14:12:53.024Z,11.21
2019-03-16T14:15:24.721Z,11.29
2019-03-16T14:17:58.259Z,11.54
2019-03-16T14:20:30.365Z,11.83
2019-03-16T14:23:02.604Z,11.96
2019-03-16T14:25:34.515Z,12.11
2019-03-16T14:28:06.436Z,12.06
2019-03-16T14:30:41.754Z,12.41
2019-03-16T14:33:11.860Z,12.52
2019-03-16T14:35:43.571Z,12.74
2019-03-16T14:38:15.523Z,12.56
2019-03-16T14:40:47.828Z,12.77
2019-03-16T14:43:19.529Z,12.72
2019-03-16T14:45:51.270Z,12.39
2019-03-16T14:48:23.918Z,12.03
2019-03-16T14:50:56.031Z,11.77
2019-03-16T14:53:29.196Z,11.40
2019-03-16T14:56:01.039Z,11.36
2019-03-16T14:58:33.777Z,11.15
2019-03-16T15:01:05.940Z,11.20
2019-03-16T15:03:39.399Z,10.99
2019-03-16T15:06:11.772Z,10.94
2019-03-16T15:08:43.515Z,10.76
2019-03-16T15:11:15.267Z,10.89
2019-03-16T15:13:47.543Z,10.90
2019-03-16T15:16:19.426Z,10.75
2019-03-16T15:18:51.358Z,10.80
2019-03-16T15:21:23.059Z,10.81
2019-03-16T15:23:55.097Z,10.79
2019-03-16T15:26:27.069Z,10.88
2019-03-16T15:28:58.795Z,10.83
2019-03-16T15:31:30.817Z,10.81
2019-03-16T15:34:03.129Z,10.80
2019-03-16T15:36:34.923Z,10.78
2019-03-16T15:39:08.889Z,10.72
2019-03-16T15:41:40.653Z,10.63
2019-03-16T15:44:12.436Z,10.50
2019-03-16T15:46:44.411Z,10.43
2019-03-16T15:49:17.206Z,10.47
2019-03-16T15:51:49.137Z,10.39
2019-03-16T15:54:20.928Z,10.64
2019-03-16T15:56:53.484Z,10.66
2019-03-16T15:59:25.288Z,10.52
2019-03-16T16:01:57.022Z,10.29
2019-03-16T16:04:28.768Z,10.49
2019-03-16T16:07:00.517Z,10.65
2019-03-16T16:09:33.627Z,10.39
2019-03-16T16:12:05.782Z,10.66
2019-03-16T16:14:37.711Z,10.77
2019-03-16T16:17:09.412Z,10.80
2019-03-16T16:19:41.132Z,11.34
2019-03-16T16:22:13.511Z,11.23
2019-03-16T16:24:45.258Z,10.99
2019-03-16T16:27:17.125Z,10.79
2019-03-16T16:29:49.151Z,10.60
2019-03-16T16:32:21.149Z,10.89
2019-03-16T16:34:53.030Z,10.78
2019-03-16T16:37:24.834Z,10.53
2019-03-16T16:39:56.671Z,10.70
2019-03-16T16:42:29.429Z,10.69
2019-03-16T16:45:01.140Z,10.63
2019-03-16T16:47:33.070Z,10.36
2019-03-16T16:50:06.433Z,10.46
2019-03-16T16:52:38.115Z,10.39
2019-03-16T16:55:10.064Z,10.30
2019-03-16T16:57:41.940Z,10.48
2019-03-16T17:00:16.110Z,10.38
2019-03-16T17:02:47.805Z,10.18
2019-03-16T17:05:20.678Z,10.12
2019-03-16T17:07:53.944Z,10.05
2019-03-16T17:10:26.350Z,9.97
2019-03-16T17:12:58.043Z,9.98
2019-03-16T17:15:29.788Z,9.77
2019-03-16T17:18:01.607Z,9.67
2019-03-16T17:20:33.614Z,9.61
2019-03-16T17:23:05.542Z,9.74
2019-03-16T17:25:37.240Z,9.58
2019-03-16T17:28:09.771Z,9.63
2019-03-16T17:30:41.882Z,9.57
2019-03-16T17:33:14.233Z,9.43
2019-03-16T17:35:45.939Z,9.38
2019-03-16T17:38:17.790Z,9.48
2019-03-16T17:40:49.515Z,9.47
2019-03-16T17:43:22.281Z,9.47
2019-03-16T17:45:54.378Z,9.35
2019-03-16T17:48:29.579Z,9.32
2019-03-16T17:50:59.993Z,9.34
2019-03-16T17:53:31.931Z,9.25
2019-03-16T17:56:03.661Z,9.23
2019-03-16T17:58:35.455Z,9.29
2019-03-16T18:01:07.241Z,9.18
2019-03-16T18:03:38.934Z,8.91
2019-03-16T18:06:11.535Z,9.06
2019-03-16T18:08:43.269Z,9.22
2019-03-16T18:11:15.484Z,9.17
2019-03-16T18:13:47.255Z,8.93
2019-03-16T18:16:18.974Z,9.10
2019-03-16T18:18:50.690Z,8.93
2019-03-16T18:21:22.527Z,8.86
2019-03-16T18:23:54.215Z,8.76
2019-03-16T18:26:25.905Z,8.72
2019-03-16T18:28:57.677Z,8.79
2019-03-16T18:31:29.347Z,8.74
2019-03-16T18:34:01.094Z,8.82
2019-03-16T18:36:33.226Z,8.82
2019-03-16T18:39:06.991Z,8.77
2019-03-16T18:41:38.705Z,8.50
2019-03-16T18:44:11.368Z,8.28
2019-03-16T18:46:43.047Z,8.19
2019-03-16T18:49:14.850Z,8.31
2019-03-16T18:51:46.791Z,8.21
2019-03-16T18:54:18.829Z,8.16
2019-03-16T18:56:51.591Z,8.34
2019-03-16T18:59:23.288Z,8.33
2019-03-16T19:01:54.993Z,8.39
2019-03-16T19:04:27.027Z,8.38
2019-03-16T19:06:58.834Z,8.45
2019-03-16T19:09:30.596Z,8.20
2019-03-16T19:12:02.299Z,8.34
2019-03-16T19:14:34.003Z,8.24
2019-03-16T19:17:06.052Z,8.14
2019-03-16T19:19:37.729Z,8.08
2019-03-16T19:22:11.584Z,8.03
2019-03-16T19:24:42.958Z,7.81
2019-03-16T19:27:19.061Z,7.70
2019-03-16T19:29:50.391Z,7.60
2019-03-16T19:32:33.009Z,7.59
2019-03-16T19:34:55.486Z,7.77
2019-03-16T19:37:27.752Z,7.82
2019-03-16T19:39:59.425Z,7.38
2019-03-16T19:42:31.426Z,7.32
2019-03-16T19:45:03.180Z,7.17
2019-03-16T19:47:34.963Z,7.12
2019-03-16T19:50:09.251Z,6.93
2019-03-16T19:52:41.452Z,7.02
2019-03-16T19:55:13.364Z,6.96
2019-03-16T19:57:45.754Z,6.76
2019-03-16T20:00:17.639Z,6.67
2019-03-16T20:02:51.276Z,6.42
2019-03-16T20:05:22.919Z,6.35
2019-03-16T20:07:54.587Z,6.24
2019-03-16T20:10:26.401Z,6.18
2019-03-16T20:12:58.214Z,5.92
2019-03-16T20:15:29.967Z,5.73
2019-03-16T20:18:01.820Z,5.59
2019-03-16T20:20:33.673Z,5.60
2019-03-16T20:23:05.361Z,5.63
2019-03-16T20:25:37.216Z,5.58
2019-03-16T20:28:09.065Z,5.55
2019-03-16T20:30:40.876Z,5.55
2019-03-16T20:33:12.560Z,5.39
2019-03-16T20:35:44.482Z,5.36
2019-03-16T20:38:16.433Z,5.16
2019-03-16T20:40:50.578Z,5.16
2019-03-16T20:43:22.484Z,5.15
2019-03-16T20:45:54.461Z,5.06
2019-03-16T20:48:26.745Z,5.08
2019-03-16T20:50:58.439Z,4.88
2019-03-16T20:53:30.264Z,4.87
2019-03-16T20:56:01.961Z,4.77
2019-03-16T20:58:33.649Z,4.68
2019-03-16T21:01:05.441Z,4.32
2019-03-16T21:03:37.111Z,4.42
2019-03-16T21:06:08.782Z,4.33
2019-03-16T21:08:40.471Z,4.28
2019-03-16T21:11:12.187Z,4.28
2019-03-16T21:13:43.911Z,4.26
2019-03-16T21:16:15.707Z,4.31
2019-03-16T21:18:47.475Z,4.33
2019-03-16T21:21:19.151Z,4.40
2019-03-16T21:23:50.888Z,4.32
2019-03-16T21:26:22.565Z,4.32
2019-03-16T21:28:54.260Z,4.29
2019-03-16T21:31:25.953Z,4.31
2019-03-16T21:33:57.668Z,4.25
2019-03-16T21:36:41.091Z,4.21
2019-03-16T21:39:06.081Z,4.26
2019-03-16T21:41:37.836Z,4.26
2019-03-16T21:44:09.723Z,4.07
2019-03-16T21:46:43.797Z,4.09
2019-03-16T21:49:15.085Z,4.02
2019-03-16T21:51:46.780Z,3.88
2019-03-16T21:54:18.740Z,3.90
2019-03-16T21:56:50.682Z,3.84
2019-03-16T21:59:22.369Z,3.71
2019-03-16T22:01:54.131Z,3.80
2019-03-16T22:04:25.852Z,3.77
2019-03-16T22:06:59.172Z,3.84
2019-03-16T22:09:31.271Z,3.94
2019-03-16T22:12:02.967Z,3.83
2019-03-16T22:14:35.000Z,3.91
2019-03-16T22:17:06.702Z,3.78
2019-03-16T22:19:38.423Z,3.87
2019-03-16T22:22:11.348Z,3.97
2019-03-16T22:24:43.150Z,3.94
2019-03-16T22:27:14.901Z,3.81
2019-03-16T22:29:46.995Z,3.77
2019-03-16T22:32:18.800Z,3.85
2019-03-16T22:34:50.489Z,3.90
2019-03-16T22:37:22.249Z,3.93
2019-03-16T22:39:54.064Z,3.70
2019-03-16T22:42:25.864Z,3.76
2019-03-16T22:44:58.571Z,3.75
2019-03-16T22:47:30.414Z,3.69
2019-03-16T22:50:02.099Z,3.56
2019-03-16T22:52:33.992Z,3.46
2019-03-16T22:55:06.355Z,3.39
2019-03-16T22:57:38.373Z,3.29
2019-03-16T23:00:12.846Z,3.17
2019-03-16T23:02:46.191Z,3.13
2019-03-16T23:05:17.969Z,3.06
2019-03-16T23:07:49.644Z,3.03
2019-03-16T23:10:21.671Z,3.07
2019-03-16T23:12:55.060Z,3.15
2019-03-16T23:15:26.920Z,3.23
2019-03-16T23:17:58.851Z,3.18
2019-03-16T23:20:30.729Z,3.14
2019-03-16T23:23:02.795Z,3.15
2019-03-16T23:25:34.502Z,3.13
2019-03-16T23:28:06.312Z,3.20
2019-03-16T23:30:38.308Z,3.14
2019-03-16T23:33:11.274Z,3.10
2019-03-16T23:35:43.101Z,3.06
2019-03-16T23:38:14.930Z,3.01
2019-03-16T23:40:46.603Z,3.03
2019-03-16T23:43:18.765Z,2.98
2019-03-16T23:45:50.537Z,2.97
2019-03-16T23:48:22.225Z,2.85
2019-03-16T23:50:54.011Z,2.87
2019-03-16T23:53:25.704Z,2.81
2019-03-16T23:55:57.670Z,2.84
2019-03-16T23:58:29.352Z,2.83
